Buoy 41609

sailwx.info

Track history (hours):
 
Tides and Currents Weather Stations Pressure Air Temp Water Temp Dewpoint Dewpoint Depression Visibility Wind Speed Wind Dir Waves Ship Positions

Drifting buoy 41609

Last reported at 2014-Dec-20 07:00 UTC. Time now 2014-Dec-20 10:24 UTC.
Position N 39°12' W 065°57'.

Water temperature 17.1 ° C

Date/timePositionNaut miles runAvg speedWind from/ knotsBaromVisibWave heightAir tempDewpointWater temp
2014-Dec-20 07:00N 39°12' W 065°57'0 0.0 17.1
2014-Dec-20 06:00N 39°12' W 065°57'3 3.4 17.2
2014-Dec-20 05:00N 39°12' W 066°01'2 0.4 17.3
2014-Dec-20 01:00N 39°11' W 066°03'1 1.1 17.5
2014-Dec-20 00:00N 39°11' W 066°04'2 0.9 17.4
2014-Dec-19 22:00N 39°10' W 066°06'1 0.8 17.3
2014-Dec-19 21:00N 39°10' W 066°07'1 1.3 17.3
2014-Dec-19 20:00N 39°09' W 066°09'2 2.1 17.3
2014-Dec-19 19:00N 39°08' W 066°11'0 0.0 17.4
2014-Dec-19 17:00N 39°08' W 066°11'2 1.8 17.5
2014-Dec-19 16:00N 39°08' W 066°14'0 0.0 17.5
2014-Dec-19 15:00N 39°08' W 066°14'0 0.0 17.5
2014-Dec-19 14:00N 39°08' W 066°14'3 0.8 17.5
2014-Dec-19 10:00N 39°08' W 066°18'0 0.4 18.0
2014-Dec-19 09:00N 39°08' W 066°18'3 2.8 17.9
2014-Dec-19 08:00N 39°07' W 066°22'0 0.0 18.0
2014-Dec-19 07:00N 39°07' W 066°22'0 0.0 18.0
2014-Dec-19 06:00N 39°07' W 066°22'5 0.9 18.0
2014-Dec-19 01:00N 39°03' W 066°26'0 0.0 17.3
2014-Dec-19 00:00N 39°03' W 066°26'2 0.7 17.6
2014-Dec-18 21:00N 39°03' W 066°28'1 0.6 18.1
2014-Dec-18 20:00N 39°03' W 066°29'0 0.0 18.1
2014-Dec-18 19:00N 39°03' W 066°29'3 3.2 18.0
2014-Dec-18 18:00N 39°03' W 066°33'0 0.0 18.0
2014-Dec-18 17:00N 39°03' W 066°33'4 0.7 17.9
2014-Dec-18 12:00N 39°02' W 066°38'1 0.5 15.5
2014-Dec-18 10:00N 39°02' W 066°39'1 1.4 14.4
2014-Dec-18 09:00N 39°01' W 066°40'0 0.0 14.2
2014-Dec-18 08:00N 39°01' W 066°40'1 0.5 14.1
2014-Dec-18 06:00N 39°00' W 066°41'0 0.0 13.9
2014-Dec-18 05:00N 39°00' W 066°41'3 1.3 13.7
2014-Dec-18 03:00N 38°60' W 066°44'0 0.0 13.5
2014-Dec-18 02:00N 38°60' W 066°44'1 1.3 13.4
2014-Dec-18 01:00N 38°60' W 066°46'0 0.0 13.4
2014-Dec-18 00:00N 38°60' W 066°46'0 0.0 13.4
2014-Dec-17 23:00N 38°60' W 066°46'2 0.9 13.4
2014-Dec-17 21:00N 39°00' W 066°48'2 0.9 13.3
2014-Dec-17 19:00N 38°60' W 066°50'0 0.1 13.2
2014-Dec-17 18:00N 38°60' W 066°50'0 0.0 13.1
2014-Dec-17 17:00N 38°60' W 066°50'1 1.3 13.2
2014-Dec-17 16:00N 38°59' W 066°52'0 0.0 13.1
2014-Dec-17 14:00N 38°59' W 066°52'4 1.2 13.1
2014-Dec-17 11:00N 38°57' W 066°56'0 0.3 13.0
2014-Dec-17 10:00N 38°57' W 066°57'1 0.7 13.0
2014-Dec-17 09:00N 38°57' W 066°58'0 0.0 13.0
2014-Dec-17 08:00N 38°57' W 066°58'1 0.5 13.0
2014-Dec-17 06:00N 38°57' W 066°59'1 0.3 13.0
2014-Dec-17 01:00N 38°58' W 067°00'0 0.0 13.0
2014-Dec-17 00:00N 38°58' W 067°00'0 0.2 13.0
2014-Dec-16 22:00N 38°58' W 067°00'0 0.2 13.0
2014-Dec-16 21:00N 38°58' W 067°00'1 0.6 13.0
2014-Dec-16 20:00N 38°58' W 067°01'1 0.3 13.1
2014-Dec-16 18:00N 38°59' W 067°01'7 0.3 13.1
2014-Dec-15 22:00N 39°05' W 067°05'0 0.0 13.1
2014-Dec-15 21:00N 39°05' W 067°05'0 0.0 13.3
2014-Dec-15 20:00N 39°05' W 067°05'1 0.8 13.4
2014-Dec-15 19:00N 39°05' W 067°05'0 0.0 13.5
2014-Dec-15 18:00N 39°05' W 067°05'1 1.2 13.6
2014-Dec-15 17:00N 39°07' W 067°05'2 0.6 13.6
2014-Dec-15 13:00N 39°09' W 067°05'0 0.0 13.8
2014-Dec-15 12:00N 39°09' W 067°05'0 0.0 13.7
2014-Dec-15 11:00N 39°09' W 067°05'1 0.8 13.8
2014-Dec-15 10:00N 39°10' W 067°05'0 0.0 14.0
2014-Dec-15 09:00N 39°10' W 067°05'0 0.5 14.3
2014-Dec-15 08:00N 39°10' W 067°05'2 1.9 14.7
2014-Dec-15 07:00N 39°11' W 067°04'0 0.0 14.9
2014-Dec-15 06:00N 39°11' W 067°04'0 0.0 14.9
2014-Dec-15 04:00N 39°11' W 067°04'1 0.4 16.0
2014-Dec-15 01:00N 39°13' W 067°04'1 0.8 17.1
2014-Dec-15 00:00N 39°13' W 067°03'0 0.0 17.1
2014-Dec-14 23:00N 39°13' W 067°03'0 0.0 17.1
2014-Dec-14 22:00N 39°13' W 067°03'2 1.5 17.1
2014-Dec-14 21:00N 39°14' W 067°02'0 0.0 17.0
2014-Dec-14 20:00N 39°14' W 067°02'2 1.5 16.8
2014-Dec-14 19:00N 39°16' W 067°01'0 0.5 16.7
2014-Dec-14 18:00N 39°16' W 067°00'2 1.9 16.7
2014-Dec-14 17:00N 39°17' W 066°59'1 1.2 16.7
2014-Dec-14 16:00N 39°19' W 066°59'0 0.0 16.7
2014-Dec-14 15:00N 39°19' W 066°59'1 1.1 16.7
2014-Dec-14 14:00N 39°19' W 067°01'2 2.0 16.7
2014-Dec-14 13:00N 39°21' W 066°59'0 0.0 16.7
2014-Dec-14 11:00N 39°21' W 066°59'1 0.8 16.5
2014-Dec-14 10:00N 39°22' W 066°59'0 0.0 16.5
2014-Dec-14 09:00N 39°22' W 066°59'1 0.8 16.5
2014-Dec-14 08:00N 39°22' W 066°58'2 1.5 16.4
2014-Dec-14 07:00N 39°23' W 066°56'0 0.0 16.4
2014-Dec-14 06:00N 39°23' W 066°56'0 0.0 16.4
2014-Dec-14 04:00N 39°23' W 066°56'3 0.9 16.4
2014-Dec-14 01:00N 39°25' W 066°56'0 0.0 16.4
2014-Dec-14 00:00N 39°25' W 066°56'1 0.9 16.4
2014-Dec-13 23:00N 39°26' W 066°55'9 0.3 16.4
2014-Dec-12 21:00N 39°35' W 066°54'1 0.7 17.1
2014-Dec-12 20:00N 39°36' W 066°54'0 0.2 17.1
2014-Dec-12 19:00N 39°35' W 066°53'1 0.8 17.1
2014-Dec-12 18:00N 39°36' W 066°53'7 0.4 17.1
2014-Dec-12 01:00N 39°43' W 066°54'1 0.7 16.6
2014-Dec-12 00:00N 39°43' W 066°55'0 0.0 16.6
2014-Dec-11 23:00N 39°43' W 066°55'2 0.8 16.6
2014-Dec-11 21:00N 39°44' W 066°53'0 0.1 16.7
2014-Dec-11 19:00N 39°44' W 066°53'1 0.4 16.7
2014-Dec-11 17:00N 39°45' W 066°53'2 0.6 16.9
2014-Dec-11 14:00N 39°46' W 066°54'0 0.0 17.8
2014-Dec-11 12:00N 39°46' W 066°54'0 0.2 17.8
2014-Dec-11 11:00N 39°46' W 066°55'0 0.2 17.8
2014-Dec-11 10:00N 39°46' W 066°55'0 0.4 17.8
2014-Dec-11 09:00N 39°47' W 066°55'0 0.1 17.7
2014-Dec-11 07:00N 39°47' W 066°55'1 1.2 17.8
2014-Dec-11 06:00N 39°48' W 066°55'1 0.7 17.7
2014-Dec-11 05:00N 39°47' W 066°55'1 0.3 17.8
2014-Dec-11 02:00N 39°48' W 066°55'1 0.5 17.8
2014-Dec-11 00:00N 39°47' W 066°56'1 1.1 17.8
2014-Dec-10 23:00N 39°48' W 066°55'0 0.3 17.8
2014-Dec-10 22:00N 39°48' W 066°55'0 0.0 17.8
2014-Dec-10 21:00N 39°48' W 066°55'1 0.7 17.8
2014-Dec-10 20:00N 39°49' W 066°54'0 0.1 17.8
2014-Dec-10 19:00N 39°48' W 066°54'1 0.4 17.8
2014-Dec-10 17:00N 39°49' W 066°54'1 0.2 17.8
2014-Dec-10 14:00N 39°50' W 066°53'1 0.2 17.8
2014-Dec-10 10:00N 39°50' W 066°53'0 0.2 17.8
2014-Dec-10 09:00N 39°50' W 066°52'1 0.8 17.8
2014-Dec-10 08:00N 39°49' W 066°51'1 0.6 17.8
2014-Dec-10 07:00N 39°49' W 066°51'   17.8
Track history (hours):
 
Tides and Currents Weather Stations Pressure Air Temp Water Temp Dewpoint Dewpoint Depression Visibility Wind Speed Wind Dir Waves Ship Positions

Drifting buoy 41609

Last reported at 2014-Dec-20 07:00 UTC. Time now 2014-Dec-20 10:24 UTC.
Position N 39°12' W 065°57'.

Water temperature 17.1 ° C

Date/timePositionNaut miles runAvg speedWind from/ knotsBaromVisibWave heightAir tempDewpointWater temp
2014-Dec-20 07:00N 39°12' W 065°57'0 0.0 17.1
2014-Dec-20 06:00N 39°12' W 065°57'3 3.4 17.2
2014-Dec-20 05:00N 39°12' W 066°01'2 0.4 17.3
2014-Dec-20 01:00N 39°11' W 066°03'1 1.1 17.5
2014-Dec-20 00:00N 39°11' W 066°04'2 0.9 17.4
2014-Dec-19 22:00N 39°10' W 066°06'1 0.8 17.3
2014-Dec-19 21:00N 39°10' W 066°07'1 1.3 17.3
2014-Dec-19 20:00N 39°09' W 066°09'2 2.1 17.3
2014-Dec-19 19:00N 39°08' W 066°11'0 0.0 17.4
2014-Dec-19 17:00N 39°08' W 066°11'2 1.8 17.5
2014-Dec-19 16:00N 39°08' W 066°14'0 0.0 17.5
2014-Dec-19 15:00N 39°08' W 066°14'0 0.0 17.5
2014-Dec-19 14:00N 39°08' W 066°14'3 0.8 17.5
2014-Dec-19 10:00N 39°08' W 066°18'0 0.4 18.0
2014-Dec-19 09:00N 39°08' W 066°18'3 2.8 17.9
2014-Dec-19 08:00N 39°07' W 066°22'0 0.0 18.0
2014-Dec-19 07:00N 39°07' W 066°22'0 0.0 18.0
2014-Dec-19 06:00N 39°07' W 066°22'5 0.9 18.0
2014-Dec-19 01:00N 39°03' W 066°26'0 0.0 17.3
2014-Dec-19 00:00N 39°03' W 066°26'2 0.7 17.6
2014-Dec-18 21:00N 39°03' W 066°28'1 0.6 18.1
2014-Dec-18 20:00N 39°03' W 066°29'0 0.0 18.1
2014-Dec-18 19:00N 39°03' W 066°29'3 3.2 18.0
2014-Dec-18 18:00N 39°03' W 066°33'0 0.0 18.0
2014-Dec-18 17:00N 39°03' W 066°33'4 0.7 17.9
2014-Dec-18 12:00N 39°02' W 066°38'1 0.5 15.5
2014-Dec-18 10:00N 39°02' W 066°39'1 1.4 14.4
2014-Dec-18 09:00N 39°01' W 066°40'0 0.0 14.2
2014-Dec-18 08:00N 39°01' W 066°40'1 0.5 14.1
2014-Dec-18 06:00N 39°00' W 066°41'0 0.0 13.9
2014-Dec-18 05:00N 39°00' W 066°41'3 1.3 13.7
2014-Dec-18 03:00N 38°60' W 066°44'0 0.0 13.5
2014-Dec-18 02:00N 38°60' W 066°44'1 1.3 13.4
2014-Dec-18 01:00N 38°60' W 066°46'0 0.0 13.4
2014-Dec-18 00:00N 38°60' W 066°46'0 0.0 13.4
2014-Dec-17 23:00N 38°60' W 066°46'2 0.9 13.4
2014-Dec-17 21:00N 39°00' W 066°48'2 0.9 13.3
2014-Dec-17 19:00N 38°60' W 066°50'0 0.1 13.2
2014-Dec-17 18:00N 38°60' W 066°50'0 0.0 13.1
2014-Dec-17 17:00N 38°60' W 066°50'1 1.3 13.2
2014-Dec-17 16:00N 38°59' W 066°52'0 0.0 13.1
2014-Dec-17 14:00N 38°59' W 066°52'4 1.2 13.1
2014-Dec-17 11:00N 38°57' W 066°56'0 0.3 13.0
2014-Dec-17 10:00N 38°57' W 066°57'1 0.7 13.0
2014-Dec-17 09:00N 38°57' W 066°58'0 0.0 13.0
2014-Dec-17 08:00N 38°57' W 066°58'1 0.5 13.0
2014-Dec-17 06:00N 38°57' W 066°59'1 0.3 13.0
2014-Dec-17 01:00N 38°58' W 067°00'0 0.0 13.0
2014-Dec-17 00:00N 38°58' W 067°00'0 0.2 13.0
2014-Dec-16 22:00N 38°58' W 067°00'0 0.2 13.0
2014-Dec-16 21:00N 38°58' W 067°00'1 0.6 13.0
2014-Dec-16 20:00N 38°58' W 067°01'1 0.3 13.1
2014-Dec-16 18:00N 38°59' W 067°01'7 0.3 13.1
2014-Dec-15 22:00N 39°05' W 067°05'0 0.0 13.1
2014-Dec-15 21:00N 39°05' W 067°05'0 0.0 13.3
2014-Dec-15 20:00N 39°05' W 067°05'1 0.8 13.4
2014-Dec-15 19:00N 39°05' W 067°05'0 0.0 13.5
2014-Dec-15 18:00N 39°05' W 067°05'1 1.2 13.6
2014-Dec-15 17:00N 39°07' W 067°05'2 0.6 13.6
2014-Dec-15 13:00N 39°09' W 067°05'0 0.0 13.8
2014-Dec-15 12:00N 39°09' W 067°05'0 0.0 13.7
2014-Dec-15 11:00N 39°09' W 067°05'1 0.8 13.8
2014-Dec-15 10:00N 39°10' W 067°05'0 0.0 14.0
2014-Dec-15 09:00N 39°10' W 067°05'0 0.5 14.3
2014-Dec-15 08:00N 39°10' W 067°05'2 1.9 14.7
2014-Dec-15 07:00N 39°11' W 067°04'0 0.0 14.9
2014-Dec-15 06:00N 39°11' W 067°04'0 0.0 14.9
2014-Dec-15 04:00N 39°11' W 067°04'1 0.4 16.0
2014-Dec-15 01:00N 39°13' W 067°04'1 0.8 17.1
2014-Dec-15 00:00N 39°13' W 067°03'0 0.0 17.1
2014-Dec-14 23:00N 39°13' W 067°03'0 0.0 17.1
2014-Dec-14 22:00N 39°13' W 067°03'2 1.5 17.1
2014-Dec-14 21:00N 39°14' W 067°02'0 0.0 17.0
2014-Dec-14 20:00N 39°14' W 067°02'2 1.5 16.8
2014-Dec-14 19:00N 39°16' W 067°01'0 0.5 16.7
2014-Dec-14 18:00N 39°16' W 067°00'2 1.9 16.7
2014-Dec-14 17:00N 39°17' W 066°59'1 1.2 16.7
2014-Dec-14 16:00N 39°19' W 066°59'0 0.0 16.7
2014-Dec-14 15:00N 39°19' W 066°59'1 1.1 16.7
2014-Dec-14 14:00N 39°19' W 067°01'2 2.0 16.7
2014-Dec-14 13:00N 39°21' W 066°59'0 0.0 16.7
2014-Dec-14 11:00N 39°21' W 066°59'1 0.8 16.5
2014-Dec-14 10:00N 39°22' W 066°59'0 0.0 16.5
2014-Dec-14 09:00N 39°22' W 066°59'1 0.8 16.5
2014-Dec-14 08:00N 39°22' W 066°58'2 1.5 16.4
2014-Dec-14 07:00N 39°23' W 066°56'0 0.0 16.4
2014-Dec-14 06:00N 39°23' W 066°56'0 0.0 16.4
2014-Dec-14 04:00N 39°23' W 066°56'3 0.9 16.4
2014-Dec-14 01:00N 39°25' W 066°56'0 0.0 16.4
2014-Dec-14 00:00N 39°25' W 066°56'1 0.9 16.4
2014-Dec-13 23:00N 39°26' W 066°55'9 0.3 16.4
2014-Dec-12 21:00N 39°35' W 066°54'1 0.7 17.1
2014-Dec-12 20:00N 39°36' W 066°54'0 0.2 17.1
2014-Dec-12 19:00N 39°35' W 066°53'1 0.8 17.1
2014-Dec-12 18:00N 39°36' W 066°53'7 0.4 17.1
2014-Dec-12 01:00N 39°43' W 066°54'1 0.7 16.6
2014-Dec-12 00:00N 39°43' W 066°55'0 0.0 16.6
2014-Dec-11 23:00N 39°43' W 066°55'2 0.8 16.6
2014-Dec-11 21:00N 39°44' W 066°53'0 0.1 16.7
2014-Dec-11 19:00N 39°44' W 066°53'1 0.4 16.7
2014-Dec-11 17:00N 39°45' W 066°53'2 0.6 16.9
2014-Dec-11 14:00N 39°46' W 066°54'0 0.0 17.8
2014-Dec-11 12:00N 39°46' W 066°54'0 0.2 17.8
2014-Dec-11 11:00N 39°46' W 066°55'0 0.2 17.8
2014-Dec-11 10:00N 39°46' W 066°55'0 0.4 17.8
2014-Dec-11 09:00N 39°47' W 066°55'0 0.1 17.7
2014-Dec-11 07:00N 39°47' W 066°55'1 1.2 17.8
2014-Dec-11 06:00N 39°48' W 066°55'1 0.7 17.7
2014-Dec-11 05:00N 39°47' W 066°55'1 0.3 17.8
2014-Dec-11 02:00N 39°48' W 066°55'1 0.5 17.8
2014-Dec-11 00:00N 39°47' W 066°56'1 1.1 17.8
2014-Dec-10 23:00N 39°48' W 066°55'0 0.3 17.8
2014-Dec-10 22:00N 39°48' W 066°55'0 0.0 17.8
2014-Dec-10 21:00N 39°48' W 066°55'1 0.7 17.8
2014-Dec-10 20:00N 39°49' W 066°54'0 0.1 17.8
2014-Dec-10 19:00N 39°48' W 066°54'1 0.4 17.8
2014-Dec-10 17:00N 39°49' W 066°54'1 0.2 17.8
2014-Dec-10 14:00N 39°50' W 066°53'1 0.2 17.8
2014-Dec-10 10:00N 39°50' W 066°53'0 0.2 17.8
2014-Dec-10 09:00N 39°50' W 066°52'1 0.8 17.8
2014-Dec-10 08:00N 39°49' W 066°51'1 0.6 17.8
2014-Dec-10 07:00N 39°49' W 066°51'   17.8

Dump ship's entire track history